Corvallis Municipal Airport Corvallis US
ICAO: KCVO
IATA: CVO
Category: Medium
Scheduled Services: No

Elevation: 250 ft
TransAlt. 18000 ft.

Airport Communications:
CASCADE APP/DEP:127.5
AWOS 3:135.775
CTAF/UNICOM:123

KCVO Zoom In..

If you have problems with the map follow the link
https://www.worldairports.se/pages/airport.php?
ICAO=KCVO

Runways:

(A) RW 09 length 3545 ft width 75 ft
---- / hdg 94

(B) RW 17 length 5900 ft width 150 ft
ILS 111.90 / hdg 169

(C) RW 27 length 3545 ft width 75 ft
---- / hdg 274

(D) RW 35 length 5900 ft width 150 ft
---- / hdg 349

Location; KCVO
Day. 14 / Time. 05.15 Zulu
* Altimeter: 30.06
* Temperature: 03° c. 37.4°f.
* Wind from: 000° Speed 00 kn.
Dewpoint: 03° c.
Visibility: 3/4 Statute Miles.
Clouds: Few 300 ft.
Conditions: Mist.

KCVO 140515Z AUTO 00000KT 3/4SM BR FEW003 03/03 A3006 RMK AO2 RVRNO


Wind - Calm.

 
 
jpsmedia worldairports.se 2019   terms of use